sensor_id;sensor_type;location;lat;lon;timestamp;temperature;humidity
22633;DHT22;11483;55.828;37.488;2023-11-21T00:01:57;-6.60;99.90
22633;DHT22;11483;55.828;37.488;2023-11-21T00:04:24;-6.60;99.90
22633;DHT22;11483;55.828;37.488;2023-11-21T00:06:50;-6.60;99.90
22633;DHT22;11483;55.828;37.488;2023-11-21T00:09:17;-6.60;99.90
22633;DHT22;11483;55.828;37.488;2023-11-21T00:11:43;-6.60;99.90
22633;DHT22;11483;55.828;37.488;2023-11-21T00:14:13;-6.60;99.90
22633;DHT22;11483;55.828;37.488;2023-11-21T00:16:41;-6.60;99.90
22633;DHT22;11483;55.828;37.488;2023-11-21T00:19:07;-6.60;99.90
22633;DHT22;11483;55.828;37.488;2023-11-21T00:21:33;-6.60;99.90
22633;DHT22;11483;55.828;37.488;2023-11-21T00:23:58;-6.60;99.90
22633;DHT22;11483;55.828;37.488;2023-11-21T00:26:24;-6.60;99.90
22633;DHT22;11483;55.828;37.488;2023-11-21T00:28:50;-6.50;99.90
22633;DHT22;11483;55.828;37.488;2023-11-21T00:31:17;-6.60;99.90
22633;DHT22;11483;55.828;37.488;2023-11-21T00:33:42;-6.60;99.90
22633;DHT22;11483;55.828;37.488;2023-11-21T00:36:09;-6.60;99.90
22633;DHT22;11483;55.828;37.488;2023-11-21T00:38:36;-6.70;99.90
22633;DHT22;11483;55.828;37.488;2023-11-21T00:41:02;-6.70;99.90
22633;DHT22;11483;55.828;37.488;2023-11-21T00:43:28;-6.70;99.90
22633;DHT22;11483;55.828;37.488;2023-11-21T00:45:54;-6.80;99.90
22633;DHT22;11483;55.828;37.488;2023-11-21T00:48:20;-6.80;99.90
22633;DHT22;11483;55.828;37.488;2023-11-21T00:50:46;-6.80;99.90
22633;DHT22;11483;55.828;37.488;2023-11-21T00:53:12;-6.80;99.90
22633;DHT22;11483;55.828;37.488;2023-11-21T00:55:38;-6.80;99.90
22633;DHT22;11483;55.828;37.488;2023-11-21T00:58:06;-6.90;99.90
22633;DHT22;11483;55.828;37.488;2023-11-21T01:00:33;-6.90;99.90
22633;DHT22;11483;55.828;37.488;2023-11-21T01:02:59;-6.90;99.90
22633;DHT22;11483;55.828;37.488;2023-11-21T01:05:25;-6.90;99.90
22633;DHT22;11483;55.828;37.488;2023-11-21T01:07:52;-7.00;99.90
22633;DHT22;11483;55.828;37.488;2023-11-21T01:10:18;-7.00;99.90
22633;DHT22;11483;55.828;37.488;2023-11-21T01:12:44;-7.00;99.90
22633;DHT22;11483;55.828;37.488;2023-11-21T01:15:10;-7.00;99.90
22633;DHT22;11483;55.828;37.488;2023-11-21T01:17:37;-7.00;99.90
22633;DHT22;11483;55.828;37.488;2023-11-21T01:20:04;-7.00;99.90
22633;DHT22;11483;55.828;37.488;2023-11-21T01:22:38;-7.00;99.90
22633;DHT22;11483;55.828;37.488;2023-11-21T01:25:04;-7.00;99.90
22633;DHT22;11483;55.828;37.488;2023-11-21T01:27:33;-7.10;99.90
22633;DHT22;11483;55.828;37.488;2023-11-21T01:30:00;-7.10;99.90
22633;DHT22;11483;55.828;37.488;2023-11-21T01:32:26;-7.10;99.90
22633;DHT22;11483;55.828;37.488;2023-11-21T01:34:54;-7.20;99.90
22633;DHT22;11483;55.828;37.488;2023-11-21T01:37:21;-7.20;99.90
22633;DHT22;11483;55.828;37.488;2023-11-21T01:39:48;-7.10;99.90
22633;DHT22;11483;55.828;37.488;2023-11-21T01:42:13;-7.20;99.90
22633;DHT22;11483;55.828;37.488;2023-11-21T01:44:40;-7.30;99.90
22633;DHT22;11483;55.828;37.488;2023-11-21T01:47:07;-7.20;99.90
22633;DHT22;11483;55.828;37.488;2023-11-21T01:49:33;-7.20;99.90
22633;DHT22;11483;55.828;37.488;2023-11-21T01:52:00;-7.20;99.90
22633;DHT22;11483;55.828;37.488;2023-11-21T01:54:26;-7.30;99.90
22633;DHT22;11483;55.828;37.488;2023-11-21T01:56:52;-7.30;99.90
22633;DHT22;11483;55.828;37.488;2023-11-21T01:59:20;-7.30;99.90
22633;DHT22;11483;55.828;37.488;2023-11-21T02:01:49;-7.40;99.90
22633;DHT22;11483;55.828;37.488;2023-11-21T02:04:17;-7.40;99.90
22633;DHT22;11483;55.828;37.488;2023-11-21T02:06:43;-7.40;99.90
22633;DHT22;11483;55.828;37.488;2023-11-21T02:09:10;-7.40;99.90
22633;DHT22;11483;55.828;37.488;2023-11-21T02:11:37;-7.50;99.90
22633;DHT22;11483;55.828;37.488;2023-11-21T02:14:04;-7.50;99.90
22633;DHT22;11483;55.828;37.488;2023-11-21T02:16:33;-7.50;99.90
22633;DHT22;11483;55.828;37.488;2023-11-21T02:18:59;-7.50;99.90
22633;DHT22;11483;55.828;37.488;2023-11-21T02:21:26;-7.40;99.90
22633;DHT22;11483;55.828;37.488;2023-11-21T02:23:52;-7.50;99.90
22633;DHT22;11483;55.828;37.488;2023-11-21T02:26:17;-7.40;99.90
22633;DHT22;11483;55.828;37.488;2023-11-21T02:28:43;-7.40;99.90
22633;DHT22;11483;55.828;37.488;2023-11-21T02:31:09;-7.40;99.90
22633;DHT22;11483;55.828;37.488;2023-11-21T02:33:35;-7.40;99.90
22633;DHT22;11483;55.828;37.488;2023-11-21T02:36:02;-7.40;99.90
22633;DHT22;11483;55.828;37.488;2023-11-21T02:38:28;-7.50;99.90
22633;DHT22;11483;55.828;37.488;2023-11-21T02:40:54;-7.50;99.90
22633;DHT22;11483;55.828;37.488;2023-11-21T02:43:20;-7.50;99.90
22633;DHT22;11483;55.828;37.488;2023-11-21T02:45:46;-7.40;99.90
22633;DHT22;11483;55.828;37.488;2023-11-21T02:48:11;-7.40;99.90
22633;DHT22;11483;55.828;37.488;2023-11-21T02:50:37;-7.40;99.90
22633;DHT22;11483;55.828;37.488;2023-11-21T02:53:03;-7.50;99.90
22633;DHT22;11483;55.828;37.488;2023-11-21T02:55:31;-7.50;99.90
22633;DHT22;11483;55.828;37.488;2023-11-21T02:58:00;-7.50;99.90
22633;DHT22;11483;55.828;37.488;2023-11-21T03:00:26;-7.50;99.90
22633;DHT22;11483;55.828;37.488;2023-11-21T03:02:53;-7.50;99.90
22633;DHT22;11483;55.828;37.488;2023-11-21T03:05:19;-7.50;99.90
22633;DHT22;11483;55.828;37.488;2023-11-21T03:07:45;-7.50;99.90
22633;DHT22;11483;55.828;37.488;2023-11-21T03:10:11;-7.50;99.90
22633;DHT22;11483;55.828;37.488;2023-11-21T03:12:40;-7.60;99.90
22633;DHT22;11483;55.828;37.488;2023-11-21T03:15:07;-7.60;99.90
22633;DHT22;11483;55.828;37.488;2023-11-21T03:17:33;-7.70;99.90
22633;DHT22;11483;55.828;37.488;2023-11-21T03:20:02;-7.70;99.90
22633;DHT22;11483;55.828;37.488;2023-11-21T03:22:29;-7.60;99.90
22633;DHT22;11483;55.828;37.488;2023-11-21T03:24:55;-7.60;99.90
22633;DHT22;11483;55.828;37.488;2023-11-21T03:27:21;-7.60;99.90
22633;DHT22;11483;55.828;37.488;2023-11-21T03:29:48;-7.60;99.90
22633;DHT22;11483;55.828;37.488;2023-11-21T03:32:14;-7.60;99.90
22633;DHT22;11483;55.828;37.488;2023-11-21T03:34:58;-7.70;99.90
22633;DHT22;11483;55.828;37.488;2023-11-21T03:37:24;-7.70;99.90
22633;DHT22;11483;55.828;37.488;2023-11-21T03:39:51;-7.70;99.90
22633;DHT22;11483;55.828;37.488;2023-11-21T03:42:17;-7.70;99.90
22633;DHT22;11483;55.828;37.488;2023-11-21T03:44:42;-7.70;99.90
22633;DHT22;11483;55.828;37.488;2023-11-21T03:47:09;-7.70;99.90
22633;DHT22;11483;55.828;37.488;2023-11-21T03:49:35;-7.70;99.90
22633;DHT22;11483;55.828;37.488;2023-11-21T03:52:00;-7.70;99.90
22633;DHT22;11483;55.828;37.488;2023-11-21T03:54:26;-7.80;99.90
22633;DHT22;11483;55.828;37.488;2023-11-21T03:56:52;-7.60;99.90
22633;DHT22;11483;55.828;37.488;2023-11-21T03:59:18;-7.60;99.90
22633;DHT22;11483;55.828;37.488;2023-11-21T04:01:44;-7.60;99.90
22633;DHT22;11483;55.828;37.488;2023-11-21T04:04:09;-7.70;99.90
22633;DHT22;11483;55.828;37.488;2023-11-21T04:06:35;-7.60;99.90
22633;DHT22;11483;55.828;37.488;2023-11-21T04:09:03;-7.70;99.90
22633;DHT22;11483;55.828;37.488;2023-11-21T04:11:30;-7.50;99.90
22633;DHT22;11483;55.828;37.488;2023-11-21T04:13:56;-7.60;99.90
22633;DHT22;11483;55.828;37.488;2023-11-21T04:16:21;-7.70;99.90
22633;DHT22;11483;55.828;37.488;2023-11-21T04:18:47;-7.60;99.90
22633;DHT22;11483;55.828;37.488;2023-11-21T04:21:13;-7.60;99.90
22633;DHT22;11483;55.828;37.488;2023-11-21T04:23:39;-7.60;99.90
22633;DHT22;11483;55.828;37.488;2023-11-21T04:26:05;-7.60;99.90
22633;DHT22;11483;55.828;37.488;2023-11-21T04:28:32;-7.60;99.90
22633;DHT22;11483;55.828;37.488;2023-11-21T04:30:58;-7.60;99.90
22633;DHT22;11483;55.828;37.488;2023-11-21T04:33:24;-7.60;99.90
22633;DHT22;11483;55.828;37.488;2023-11-21T04:35:51;-7.60;99.90
22633;DHT22;11483;55.828;37.488;2023-11-21T04:38:17;-7.60;99.90
22633;DHT22;11483;55.828;37.488;2023-11-21T04:40:44;-7.60;99.90
22633;DHT22;11483;55.828;37.488;2023-11-21T04:43:10;-7.60;99.90
22633;DHT22;11483;55.828;37.488;2023-11-21T04:45:36;-7.60;99.90
22633;DHT22;11483;55.828;37.488;2023-11-21T04:48:02;-7.60;99.90
22633;DHT22;11483;55.828;37.488;2023-11-21T04:50:29;-7.60;99.90
22633;DHT22;11483;55.828;37.488;2023-11-21T04:52:55;-7.50;99.90
22633;DHT22;11483;55.828;37.488;2023-11-21T04:55:20;-7.50;99.90
22633;DHT22;11483;55.828;37.488;2023-11-21T04:57:46;-7.50;99.90
22633;DHT22;11483;55.828;37.488;2023-11-21T05:00:13;-7.50;99.90
22633;DHT22;11483;55.828;37.488;2023-11-21T05:02:40;-7.50;99.90
22633;DHT22;11483;55.828;37.488;2023-11-21T05:05:07;-7.50;99.90
22633;DHT22;11483;55.828;37.488;2023-11-21T05:07:36;-7.60;99.90
22633;DHT22;11483;55.828;37.488;2023-11-21T05:10:02;-7.60;99.90
22633;DHT22;11483;55.828;37.488;2023-11-21T05:12:31;-7.50;99.90
22633;DHT22;11483;55.828;37.488;2023-11-21T05:15:07;-7.50;99.90
22633;DHT22;11483;55.828;37.488;2023-11-21T05:17:37;-7.60;99.90
22633;DHT22;11483;55.828;37.488;2023-11-21T05:20:05;-7.50;99.90
22633;DHT22;11483;55.828;37.488;2023-11-21T05:22:34;-7.50;99.90
22633;DHT22;11483;55.828;37.488;2023-11-21T05:25:01;-7.50;99.90
22633;DHT22;11483;55.828;37.488;2023-11-21T05:27:26;-7.50;99.90
22633;DHT22;11483;55.828;37.488;2023-11-21T05:29:52;-7.50;99.90
22633;DHT22;11483;55.828;37.488;2023-11-21T05:32:18;-7.60;99.90
22633;DHT22;11483;55.828;37.488;2023-11-21T05:34:44;-7.60;99.90
22633;DHT22;11483;55.828;37.488;2023-11-21T05:37:10;-7.70;99.90
22633;DHT22;11483;55.828;37.488;2023-11-21T05:39:36;-7.60;99.90
22633;DHT22;11483;55.828;37.488;2023-11-21T05:42:01;-7.60;99.90
22633;DHT22;11483;55.828;37.488;2023-11-21T05:44:29;-7.60;99.90
22633;DHT22;11483;55.828;37.488;2023-11-21T05:46:55;-7.50;99.90
22633;DHT22;11483;55.828;37.488;2023-11-21T05:49:23;-7.50;99.90
22633;DHT22;11483;55.828;37.488;2023-11-21T05:51:53;-7.40;99.90
22633;DHT22;11483;55.828;37.488;2023-11-21T05:54:19;-7.40;99.90
22633;DHT22;11483;55.828;37.488;2023-11-21T05:56:46;-7.40;99.90
22633;DHT22;11483;55.828;37.488;2023-11-21T05:59:12;-7.30;99.90
22633;DHT22;11483;55.828;37.488;2023-11-21T06:01:38;-7.40;99.90
22633;DHT22;11483;55.828;37.488;2023-11-21T06:04:05;-7.30;99.90
22633;DHT22;11483;55.828;37.488;2023-11-21T06:06:31;-7.30;99.90
22633;DHT22;11483;55.828;37.488;2023-11-21T06:08:57;-7.30;99.90
22633;DHT22;11483;55.828;37.488;2023-11-21T06:11:23;-7.20;99.90
22633;DHT22;11483;55.828;37.488;2023-11-21T06:13:50;-7.10;99.90
22633;DHT22;11483;55.828;37.488;2023-11-21T06:16:16;-7.10;99.90
22633;DHT22;11483;55.828;37.488;2023-11-21T06:18:45;-7.10;99.90
22633;DHT22;11483;55.828;37.488;2023-11-21T06:21:11;-7.10;99.90
22633;DHT22;11483;55.828;37.488;2023-11-21T06:23:37;-7.00;99.90
22633;DHT22;11483;55.828;37.488;2023-11-21T06:26:03;-7.00;99.90
22633;DHT22;11483;55.828;37.488;2023-11-21T06:28:30;-7.00;99.90
22633;DHT22;11483;55.828;37.488;2023-11-21T06:30:56;-7.00;99.90
22633;DHT22;11483;55.828;37.488;2023-11-21T06:33:23;-6.90;99.90
22633;DHT22;11483;55.828;37.488;2023-11-21T06:35:51;-6.90;99.90
22633;DHT22;11483;55.828;37.488;2023-11-21T06:38:16;-6.90;99.90
22633;DHT22;11483;55.828;37.488;2023-11-21T06:40:43;-7.00;99.90
22633;DHT22;11483;55.828;37.488;2023-11-21T06:43:10;-6.90;99.90
22633;DHT22;11483;55.828;37.488;2023-11-21T06:45:36;-7.00;99.90
22633;DHT22;11483;55.828;37.488;2023-11-21T06:48:02;-6.90;99.90
22633;DHT22;11483;55.828;37.488;2023-11-21T06:50:27;-6.80;99.90
22633;DHT22;11483;55.828;37.488;2023-11-21T06:52:53;-6.70;99.90
22633;DHT22;11483;55.828;37.488;2023-11-21T06:55:19;-6.60;99.90
22633;DHT22;11483;55.828;37.488;2023-11-21T06:57:45;-6.70;99.90
22633;DHT22;11483;55.828;37.488;2023-11-21T07:00:14;-6.70;99.90
22633;DHT22;11483;55.828;37.488;2023-11-21T07:02:41;-6.70;99.90
22633;DHT22;11483;55.828;37.488;2023-11-21T07:05:07;-6.70;99.90
22633;DHT22;11483;55.828;37.488;2023-11-21T07:07:33;-6.70;99.90
22633;DHT22;11483;55.828;37.488;2023-11-21T07:10:01;-6.60;99.90
22633;DHT22;11483;55.828;37.488;2023-11-21T07:12:30;-6.60;99.90
22633;DHT22;11483;55.828;37.488;2023-11-21T07:14:57;-6.50;99.90
22633;DHT22;11483;55.828;37.488;2023-11-21T07:17:23;-6.60;99.90
22633;DHT22;11483;55.828;37.488;2023-11-21T07:19:49;-6.50;99.90
22633;DHT22;11483;55.828;37.488;2023-11-21T07:22:16;-6.50;99.90
22633;DHT22;11483;55.828;37.488;2023-11-21T07:24:50;-6.50;99.90
22633;DHT22;11483;55.828;37.488;2023-11-21T07:27:19;-6.50;99.90
22633;DHT22;11483;55.828;37.488;2023-11-21T07:29:45;-6.50;99.90
22633;DHT22;11483;55.828;37.488;2023-11-21T07:32:11;-6.60;99.90
22633;DHT22;11483;55.828;37.488;2023-11-21T07:34:38;-6.50;99.90
22633;DHT22;11483;55.828;37.488;2023-11-21T07:37:04;-6.60;99.90
22633;DHT22;11483;55.828;37.488;2023-11-21T07:39:30;-6.60;99.90
22633;DHT22;11483;55.828;37.488;2023-11-21T07:41:56;-6.60;99.90
22633;DHT22;11483;55.828;37.488;2023-11-21T07:44:23;-6.40;99.90
22633;DHT22;11483;55.828;37.488;2023-11-21T07:46:49;-6.30;99.90
22633;DHT22;11483;55.828;37.488;2023-11-21T07:49:17;-6.30;99.90
22633;DHT22;11483;55.828;37.488;2023-11-21T07:51:46;-6.20;99.90
22633;DHT22;11483;55.828;37.488;2023-11-21T07:54:11;-6.30;99.90
22633;DHT22;11483;55.828;37.488;2023-11-21T07:56:37;-6.40;99.90
22633;DHT22;11483;55.828;37.488;2023-11-21T07:59:03;-6.50;99.90
22633;DHT22;11483;55.828;37.488;2023-11-21T08:01:30;-6.40;99.90
22633;DHT22;11483;55.828;37.488;2023-11-21T08:03:55;-6.50;99.90
22633;DHT22;11483;55.828;37.488;2023-11-21T08:06:24;-6.50;99.90
22633;DHT22;11483;55.828;37.488;2023-11-21T08:08:51;-6.40;99.90
22633;DHT22;11483;55.828;37.488;2023-11-21T08:11:17;-6.40;99.90
22633;DHT22;11483;55.828;37.488;2023-11-21T08:13:45;-6.40;99.90
22633;DHT22;11483;55.828;37.488;2023-11-21T08:16:12;-6.50;99.90
22633;DHT22;11483;55.828;37.488;2023-11-21T08:18:38;-6.40;99.90
22633;DHT22;11483;55.828;37.488;2023-11-21T08:21:05;-6.40;99.90
22633;DHT22;11483;55.828;37.488;2023-11-21T08:23:31;-6.40;99.90
22633;DHT22;11483;55.828;37.488;2023-11-21T08:25:57;-6.30;99.90
22633;DHT22;11483;55.828;37.488;2023-11-21T08:28:23;-6.20;99.90
22633;DHT22;11483;55.828;37.488;2023-11-21T08:30:52;-6.10;99.90
22633;DHT22;11483;55.828;37.488;2023-11-21T08:33:18;-6.00;99.90
22633;DHT22;11483;55.828;37.488;2023-11-21T08:35:44;-6.10;99.90
22633;DHT22;11483;55.828;37.488;2023-11-21T08:38:12;-6.20;99.90
22633;DHT22;11483;55.828;37.488;2023-11-21T08:40:38;-6.20;99.90
22633;DHT22;11483;55.828;37.488;2023-11-21T08:43:04;-6.20;99.90
22633;DHT22;11483;55.828;37.488;2023-11-21T08:45:33;-6.10;99.90
22633;DHT22;11483;55.828;37.488;2023-11-21T08:48:03;-6.00;99.90
22633;DHT22;11483;55.828;37.488;2023-11-21T08:50:29;-6.00;99.90
22633;DHT22;11483;55.828;37.488;2023-11-21T08:52:55;-6.20;99.90
22633;DHT22;11483;55.828;37.488;2023-11-21T08:55:21;-6.20;99.90
22633;DHT22;11483;55.828;37.488;2023-11-21T08:57:48;-6.20;99.90
22633;DHT22;11483;55.828;37.488;2023-11-21T09:00:14;-6.30;99.90
22633;DHT22;11483;55.828;37.488;2023-11-21T09:02:43;-6.20;99.90
22633;DHT22;11483;55.828;37.488;2023-11-21T09:05:13;-6.10;99.90
22633;DHT22;11483;55.828;37.488;2023-11-21T09:07:40;-6.20;99.90
22633;DHT22;11483;55.828;37.488;2023-11-21T09:10:07;-6.20;99.90
22633;DHT22;11483;55.828;37.488;2023-11-21T09:12:36;-6.20;99.90
22633;DHT22;11483;55.828;37.488;2023-11-21T09:15:06;-6.30;99.90
22633;DHT22;11483;55.828;37.488;2023-11-21T09:17:33;-6.20;99.90
22633;DHT22;11483;55.828;37.488;2023-11-21T09:20:02;-6.20;99.90
22633;DHT22;11483;55.828;37.488;2023-11-21T09:22:32;-6.10;99.90
22633;DHT22;11483;55.828;37.488;2023-11-21T09:24:58;-6.20;99.90
22633;DHT22;11483;55.828;37.488;2023-11-21T09:27:24;-6.20;99.90
22633;DHT22;11483;55.828;37.488;2023-11-21T09:29:51;-6.20;99.90
22633;DHT22;11483;55.828;37.488;2023-11-21T09:32:18;-6.20;99.90
22633;DHT22;11483;55.828;37.488;2023-11-21T09:34:44;-6.10;99.90
22633;DHT22;11483;55.828;37.488;2023-11-21T09:37:10;-6.10;99.90
22633;DHT22;11483;55.828;37.488;2023-11-21T09:39:36;-6.00;99.90
22633;DHT22;11483;55.828;37.488;2023-11-21T09:43:09;-6.00;99.90
22633;DHT22;11483;55.828;37.488;2023-11-21T09:45:11;-5.90;99.90
22633;DHT22;11483;55.828;37.488;2023-11-21T09:47:42;-5.80;99.90
22633;DHT22;11483;55.828;37.488;2023-11-21T09:50:09;-5.90;99.90
22633;DHT22;11483;55.828;37.488;2023-11-21T09:52:59;-5.90;99.90
22633;DHT22;11483;55.828;37.488;2023-11-21T09:55:34;-5.90;99.90
22633;DHT22;11483;55.828;37.488;2023-11-21T09:58:05;-5.90;99.90
22633;DHT22;11483;55.828;37.488;2023-11-21T10:00:33;-5.90;99.90
22633;DHT22;11483;55.828;37.488;2023-11-21T10:03:00;-5.80;99.90
22633;DHT22;11483;55.828;37.488;2023-11-21T10:05:26;-5.70;99.90
22633;DHT22;11483;55.828;37.488;2023-11-21T10:07:52;-5.70;99.90
22633;DHT22;11483;55.828;37.488;2023-11-21T10:10:20;-5.70;99.90
22633;DHT22;11483;55.828;37.488;2023-11-21T10:12:51;-5.60;99.90
22633;DHT22;11483;55.828;37.488;2023-11-21T10:15:24;-5.70;99.90
22633;DHT22;11483;55.828;37.488;2023-11-21T10:17:55;-5.70;99.90
22633;DHT22;11483;55.828;37.488;2023-11-21T10:20:23;-5.90;99.90
22633;DHT22;11483;55.828;37.488;2023-11-21T10:22:50;-5.90;99.90
22633;DHT22;11483;55.828;37.488;2023-11-21T10:25:16;-6.00;99.90
22633;DHT22;11483;55.828;37.488;2023-11-21T10:27:47;-6.00;99.90
22633;DHT22;11483;55.828;37.488;2023-11-21T10:30:13;-6.10;99.90
22633;DHT22;11483;55.828;37.488;2023-11-21T10:32:44;-6.10;99.90
22633;DHT22;11483;55.828;37.488;2023-11-21T10:35:11;-6.20;99.90
22633;DHT22;11483;55.828;37.488;2023-11-21T10:37:37;-6.20;99.90
22633;DHT22;11483;55.828;37.488;2023-11-21T10:40:10;-6.20;99.90
22633;DHT22;11483;55.828;37.488;2023-11-21T10:42:39;-6.10;99.90
22633;DHT22;11483;55.828;37.488;2023-11-21T10:45:07;-6.00;99.90
22633;DHT22;11483;55.828;37.488;2023-11-21T10:47:40;-6.00;99.90
22633;DHT22;11483;55.828;37.488;2023-11-21T10:50:06;-6.00;99.90
22633;DHT22;11483;55.828;37.488;2023-11-21T10:52:37;-5.90;99.90
22633;DHT22;11483;55.828;37.488;2023-11-21T10:55:25;-5.90;99.90
22633;DHT22;11483;55.828;37.488;2023-11-21T10:57:53;-6.00;99.90
22633;DHT22;11483;55.828;37.488;2023-11-21T11:00:20;-6.00;99.90
22633;DHT22;11483;55.828;37.488;2023-11-21T11:02:53;-6.00;99.90
22633;DHT22;11483;55.828;37.488;2023-11-21T11:05:30;-6.10;99.90
22633;DHT22;11483;55.828;37.488;2023-11-21T11:08:17;-6.10;99.90
22633;DHT22;11483;55.828;37.488;2023-11-21T11:10:45;-6.00;99.90
22633;DHT22;11483;55.828;37.488;2023-11-21T11:13:13;-6.00;99.90
22633;DHT22;11483;55.828;37.488;2023-11-21T11:15:40;-6.00;99.90
22633;DHT22;11483;55.828;37.488;2023-11-21T11:18:07;-6.10;99.90
22633;DHT22;11483;55.828;37.488;2023-11-21T11:20:37;-6.10;99.90
22633;DHT22;11483;55.828;37.488;2023-11-21T11:34:32;-6.30;99.90
22633;DHT22;11483;55.828;37.488;2023-11-21T11:37:04;-6.30;99.90
22633;DHT22;11483;55.828;37.488;2023-11-21T11:39:41;-6.30;99.90
22633;DHT22;11483;55.828;37.488;2023-11-21T11:42:16;-6.30;99.90
22633;DHT22;11483;55.828;37.488;2023-11-21T11:47:23;-6.30;99.90
22633;DHT22;11483;55.828;37.488;2023-11-21T11:49:58;-6.30;99.90
22633;DHT22;11483;55.828;37.488;2023-11-21T11:52:35;-6.40;99.90
22633;DHT22;11483;55.828;37.488;2023-11-21T11:55:02;-6.40;99.90
22633;DHT22;11483;55.828;37.488;2023-11-21T11:57:30;-6.50;99.90
22633;DHT22;11483;55.828;37.488;2023-11-21T12:00:11;-6.50;99.90
22633;DHT22;11483;55.828;37.488;2023-11-21T12:02:38;-6.60;99.90
22633;DHT22;11483;55.828;37.488;2023-11-21T12:05:11;-6.50;99.90
22633;DHT22;11483;55.828;37.488;2023-11-21T12:08:05;-6.50;99.90
22633;DHT22;11483;55.828;37.488;2023-11-21T12:10:33;-6.50;99.90
22633;DHT22;11483;55.828;37.488;2023-11-21T12:13:00;-6.60;99.90
22633;DHT22;11483;55.828;37.488;2023-11-21T12:15:27;-6.50;99.90
22633;DHT22;11483;55.828;37.488;2023-11-21T12:17:57;-6.60;99.90
22633;DHT22;11483;55.828;37.488;2023-11-21T12:20:25;-6.70;99.90
22633;DHT22;11483;55.828;37.488;2023-11-21T12:22:59;-6.60;99.90
22633;DHT22;11483;55.828;37.488;2023-11-21T12:25:27;-6.50;99.90
22633;DHT22;11483;55.828;37.488;2023-11-21T12:27:55;-6.60;99.90
22633;DHT22;11483;55.828;37.488;2023-11-21T12:30:27;-6.60;99.90
22633;DHT22;11483;55.828;37.488;2023-11-21T12:32:58;-6.50;99.90
22633;DHT22;11483;55.828;37.488;2023-11-21T12:35:27;-6.50;99.90
22633;DHT22;11483;55.828;37.488;2023-11-21T12:37:54;-6.50;99.90
22633;DHT22;11483;55.828;37.488;2023-11-21T12:40:23;-6.60;99.90
22633;DHT22;11483;55.828;37.488;2023-11-21T12:42:53;-6.50;99.90
22633;DHT22;11483;55.828;37.488;2023-11-21T12:47:54;-6.50;99.90
22633;DHT22;11483;55.828;37.488;2023-11-21T12:50:24;-6.60;99.90
22633;DHT22;11483;55.828;37.488;2023-11-21T12:52:57;-6.60;99.90
22633;DHT22;11483;55.828;37.488;2023-11-21T12:55:24;-6.60;99.90
22633;DHT22;11483;55.828;37.488;2023-11-21T12:57:55;-6.60;99.90
22633;DHT22;11483;55.828;37.488;2023-11-21T13:00:32;-6.60;99.90
22633;DHT22;11483;55.828;37.488;2023-11-21T13:02:59;-6.60;99.90
22633;DHT22;11483;55.828;37.488;2023-11-21T13:05:37;-6.60;99.90
22633;DHT22;11483;55.828;37.488;2023-11-21T13:08:09;-6.60;99.90
22633;DHT22;11483;55.828;37.488;2023-11-21T13:10:39;-6.60;99.90
22633;DHT22;11483;55.828;37.488;2023-11-21T13:13:06;-6.60;99.90
22633;DHT22;11483;55.828;37.488;2023-11-21T13:15:36;-6.60;99.90
22633;DHT22;11483;55.828;37.488;2023-11-21T13:18:04;-6.50;99.90
22633;DHT22;11483;55.828;37.488;2023-11-21T13:20:30;-6.60;99.90
22633;DHT22;11483;55.828;37.488;2023-11-21T13:22:57;-6.60;99.90
22633;DHT22;11483;55.828;37.488;2023-11-21T13:25:28;-6.60;99.90
22633;DHT22;11483;55.828;37.488;2023-11-21T13:27:54;-6.60;99.90
22633;DHT22;11483;55.828;37.488;2023-11-21T13:30:21;-6.60;99.90
22633;DHT22;11483;55.828;37.488;2023-11-21T13:33:05;-6.70;99.90
22633;DHT22;11483;55.828;37.488;2023-11-21T13:35:35;-6.70;99.90
22633;DHT22;11483;55.828;37.488;2023-11-21T13:38:09;-6.70;99.90
22633;DHT22;11483;55.828;37.488;2023-11-21T13:40:36;-6.60;99.90
22633;DHT22;11483;55.828;37.488;2023-11-21T13:43:12;-6.60;99.90
22633;DHT22;11483;55.828;37.488;2023-11-21T13:45:39;-6.70;99.90
22633;DHT22;11483;55.828;37.488;2023-11-21T13:48:06;-6.70;99.90
22633;DHT22;11483;55.828;37.488;2023-11-21T13:50:39;-6.70;99.90
22633;DHT22;11483;55.828;37.488;2023-11-21T13:53:14;-6.60;99.90
22633;DHT22;11483;55.828;37.488;2023-11-21T13:55:54;-6.70;99.90
22633;DHT22;11483;55.828;37.488;2023-11-21T13:58:20;-6.70;99.90
22633;DHT22;11483;55.828;37.488;2023-11-21T14:01:05;-6.80;99.90
22633;DHT22;11483;55.828;37.488;2023-11-21T14:03:34;-6.80;99.90
22633;DHT22;11483;55.828;37.488;2023-11-21T14:06:17;-6.80;99.90
22633;DHT22;11483;55.828;37.488;2023-11-21T14:08:50;-6.80;99.90
22633;DHT22;11483;55.828;37.488;2023-11-21T14:11:16;-6.80;99.90
22633;DHT22;11483;55.828;37.488;2023-11-21T14:13:44;-6.80;99.90
22633;DHT22;11483;55.828;37.488;2023-11-21T14:16:15;-6.90;99.90
22633;DHT22;11483;55.828;37.488;2023-11-21T14:18:43;-6.80;99.90
22633;DHT22;11483;55.828;37.488;2023-11-21T14:21:23;-6.80;99.90
22633;DHT22;11483;55.828;37.488;2023-11-21T14:23:48;-6.70;99.90
22633;DHT22;11483;55.828;37.488;2023-11-21T14:26:14;-6.70;99.90
22633;DHT22;11483;55.828;37.488;2023-11-21T14:28:42;-6.80;99.90
22633;DHT22;11483;55.828;37.488;2023-11-21T14:31:08;-6.80;99.90
22633;DHT22;11483;55.828;37.488;2023-11-21T14:33:39;-6.90;99.90
22633;DHT22;11483;55.828;37.488;2023-11-21T14:36:06;-6.90;99.90
22633;DHT22;11483;55.828;37.488;2023-11-21T14:38:36;-6.90;99.90
22633;DHT22;11483;55.828;37.488;2023-11-21T14:41:04;-6.90;99.90
22633;DHT22;11483;55.828;37.488;2023-11-21T14:43:29;-6.90;99.90
22633;DHT22;11483;55.828;37.488;2023-11-21T14:45:59;-6.90;99.90
22633;DHT22;11483;55.828;37.488;2023-11-21T14:48:25;-7.00;99.90
22633;DHT22;11483;55.828;37.488;2023-11-21T14:51:13;-6.90;99.90
22633;DHT22;11483;55.828;37.488;2023-11-21T14:53:58;-6.90;99.90
22633;DHT22;11483;55.828;37.488;2023-11-21T14:56:32;-7.00;99.90
22633;DHT22;11483;55.828;37.488;2023-11-21T14:59:03;-7.00;99.90
22633;DHT22;11483;55.828;37.488;2023-11-21T15:01:38;-7.00;99.90
22633;DHT22;11483;55.828;37.488;2023-11-21T15:04:21;-7.00;99.90
22633;DHT22;11483;55.828;37.488;2023-11-21T15:07:05;-7.00;99.90
22633;DHT22;11483;55.828;37.488;2023-11-21T15:09:31;-7.00;99.90
22633;DHT22;11483;55.828;37.488;2023-11-21T15:11:58;-7.10;99.90
22633;DHT22;11483;55.828;37.488;2023-11-21T15:14:32;-7.10;99.90
22633;DHT22;11483;55.828;37.488;2023-11-21T15:17:00;-7.10;99.90
22633;DHT22;11483;55.828;37.488;2023-11-21T15:19:26;-7.10;99.90
22633;DHT22;11483;55.828;37.488;2023-11-21T15:21:54;-7.10;99.90
22633;DHT22;11483;55.828;37.488;2023-11-21T15:24:20;-7.20;99.90
22633;DHT22;11483;55.828;37.488;2023-11-21T15:26:46;-7.20;99.90
22633;DHT22;11483;55.828;37.488;2023-11-21T15:29:11;-7.20;99.90
22633;DHT22;11483;55.828;37.488;2023-11-21T15:31:39;-7.20;99.90
22633;DHT22;11483;55.828;37.488;2023-11-21T15:34:09;-7.30;99.90
22633;DHT22;11483;55.828;37.488;2023-11-21T15:36:36;-7.20;99.90
22633;DHT22;11483;55.828;37.488;2023-11-21T15:39:02;-7.20;99.90